Time;durP1;ratioP1;P1;durP2;ratioP2;P2;SDS_P1;SDS_P2;PMS_P1;PMS_P2;Temp;Humidity;BMP_temperature;BMP_pressure;BME280_temperature;BME280_humidity;BME280_pressure;Samples;Min_cycle;Max_cycle;Signal;HPM_P1;HPM_P2
2021/12/14 00:01:51;;;;;;;11.47;10.27;;;4.40;99.90;;;5.18;100.00;99038.16;5228558;28;20215;-60
2021/12/14 00:04:30;;;;;;;12.57;10.60;;;4.50;99.90;;;5.23;100.00;99043.63;5227530;28;20200;-62
2021/12/14 00:07:10;;;;;;;11.20;10.10;;;4.50;99.90;;;5.19;100.00;99045.00;5229755;28;20203;-60
2021/12/14 00:09:44;;;;;;;10.70;9.30;;;4.50;99.90;;;5.24;100.00;99048.88;5224880;28;20217;-61
2021/12/14 00:12:34;;;;;;;11.07;9.87;;;4.50;99.90;;;5.30;100.00;99040.97;5219355;28;20205;-60
2021/12/14 00:15:15;;;;;;;10.17;9.13;;;4.50;99.90;;;5.40;100.00;99041.09;5227884;28;20207;-62
2021/12/14 00:17:51;;;;;;;11.53;10.03;;;4.50;99.90;;;5.42;100.00;99035.41;5229768;28;20664;-61
2021/12/14 00:20:35;;;;;;;10.97;9.87;;;4.50;99.90;;;5.38;100.00;99040.97;5228707;28;20704;-62
2021/12/14 00:26:05;;;;;;;11.97;10.23;;;4.50;99.90;;;5.33;100.00;99046.34;5220256;28;20222;-61
2021/12/14 00:28:38;;;;;;;11.23;10.00;;;4.50;99.90;;;5.31;100.00;99043.63;5224572;28;20228;-62
2021/12/14 00:31:17;;;;;;;9.90;8.90;;;4.60;99.90;;;5.35;100.00;99042.28;5216945;28;20186;-61
2021/12/14 00:33:55;;;;;;;10.93;9.83;;;4.50;99.90;;;5.31;100.00;99038.56;5228278;28;20250;-61
2021/12/14 00:36:28;;;;;;;11.30;9.90;;;4.50;99.90;;;5.30;100.00;99033.38;5228035;28;20193;-61
2021/12/14 00:39:03;;;;;;;12.60;11.13;;;4.50;99.90;;;5.23;100.00;99038.56;5227235;28;20227;-62
2021/12/14 00:41:39;;;;;;;12.67;10.73;;;4.50;99.90;;;5.21;100.00;99033.38;5221636;28;20205;-61
2021/12/14 00:44:13;;;;;;;11.47;10.20;;;4.40;99.90;;;5.22;100.00;99037.69;5229218;28;20567;-61
2021/12/14 00:46:47;;;;;;;14.47;10.97;;;4.40;99.90;;;5.26;100.00;99031.25;5230099;28;20597;-61
2021/12/14 00:49:21;;;;;;;12.90;10.77;;;4.50;99.90;;;5.29;100.00;99026.47;5228564;28;20602;-61
2021/12/14 00:51:55;;;;;;;12.30;10.60;;;4.50;99.90;;;5.27;100.00;99022.94;5224068;28;20220;-60
2021/12/14 00:54:28;;;;;;;12.03;10.03;;;4.60;99.90;;;5.29;100.00;99018.88;5220767;28;20201;-61
2021/12/14 00:57:01;;;;;;;12.13;10.57;;;4.50;99.90;;;5.20;100.00;99031.56;5226209;28;20201;-61
2021/12/14 00:59:34;;;;;;;11.47;10.27;;;4.50;99.90;;;5.42;100.00;99030.34;5228263;28;20224;-60
2021/12/14 01:02:15;;;;;;;13.27;11.30;;;4.50;99.90;;;5.30;99.75;99029.19;5228375;28;20198;-61
2021/12/14 01:04:52;;;;;;;12.50;10.30;;;4.50;99.90;;;5.25;100.00;99025.31;5224018;28;20244;-61
2021/12/14 01:07:29;;;;;;;11.83;10.63;;;4.50;99.90;;;5.17;99.93;99026.19;5229866;28;20193;-61
2021/12/14 01:10:14;;;;;;;11.93;10.47;;;4.40;99.90;;;5.19;100.00;99029.78;5222315;28;20320;-60
2021/12/14 01:12:51;;;;;;;12.10;10.10;;;4.50;99.90;;;5.17;100.00;99031.28;5223398;28;20201;-61
2021/12/14 01:15:42;;;;;;;11.30;10.20;;;4.40;99.90;;;5.21;100.00;99040.97;5229551;28;20194;-61
2021/12/14 01:18:30;;;;;;;13.23;10.77;;;4.40;99.90;;;5.17;100.00;99046.47;5225198;28;20201;-61
2021/12/14 01:21:15;;;;;;;11.80;10.17;;;4.50;99.90;;;5.18;100.00;99046.63;5214296;28;20191;-61
2021/12/14 01:23:59;;;;;;;13.70;11.10;;;4.50;99.90;;;5.21;100.00;99043.50;5225393;28;20223;-59
2021/12/14 01:26:36;;;;;;;11.23;9.83;;;4.50;99.90;;;5.25;100.00;99048.13;5220265;28;20232;-60
2021/12/14 01:29:11;;;;;;;13.53;10.97;;;4.50;99.90;;;5.30;100.00;99054.53;5228710;28;20701;-59
2021/12/14 01:31:48;;;;;;;11.07;9.50;;;4.50;99.90;;;5.32;100.00;99053.03;5230342;28;20188;-61
2021/12/14 01:34:23;;;;;;;11.67;10.20;;;4.60;99.90;;;5.31;100.00;99056.31;5228731;28;20318;-60
2021/12/14 01:36:59;;;;;;;11.73;10.17;;;4.50;99.90;;;5.33;100.00;99064.97;5230840;28;20181;-61
2021/12/14 01:39:48;;;;;;;12.27;10.47;;;4.50;99.90;;;5.40;100.00;99062.25;5229588;28;20221;-60
2021/12/14 01:42:26;;;;;;;10.57;9.43;;;4.60;99.90;;;5.36;100.00;99064.38;5229160;28;20971;-59
2021/12/14 01:45:06;;;;;;;13.93;10.90;;;4.60;99.90;;;5.35;100.00;99073.63;5230760;28;20201;-60
2021/12/14 01:47:42;;;;;;;12.13;10.93;;;4.60;99.90;;;5.35;100.00;99065.09;5230102;28;20213;-60
2021/12/14 01:50:23;;;;;;;11.07;9.97;;;4.50;99.90;;;5.40;100.00;99074.03;5223445;28;20706;-61
2021/12/14 01:52:57;;;;;;;10.53;9.53;;;4.50;99.90;;;5.42;100.00;99070.91;5229925;28;20209;-61
2021/12/14 01:55:38;;;;;;;11.77;10.67;;;4.60;99.90;;;5.43;100.00;99076.88;5227460;28;20682;-60
2021/12/14 01:58:12;;;;;;;10.47;9.47;;;4.60;99.90;;;5.47;99.20;99073.91;5228222;28;20204;-61
2021/12/14 02:00:52;;;;;;;10.53;9.43;;;4.50;99.90;;;5.49;99.13;99069.84;5228585;28;20201;-60
2021/12/14 02:03:33;;;;;;;10.80;9.60;;;4.60;99.90;;;5.48;99.04;99070.59;5226832;28;20189;-61
2021/12/14 02:06:13;;;;;;;11.97;10.97;;;4.60;99.90;;;5.58;98.24;99067.31;5227893;28;20217;-60
2021/12/14 02:08:47;;;;;;;11.63;10.63;;;4.50;99.90;;;5.49;98.06;99063.88;5227468;28;20284;-61
2021/12/14 02:11:20;;;;;;;11.33;10.27;;;4.50;99.90;;;5.48;97.28;99059.56;5226086;28;20196;-59
2021/12/14 02:13:55;;;;;;;10.77;9.77;;;4.40;99.90;;;5.46;98.01;99061.06;5213353;28;20223;-60
2021/12/14 02:16:29;;;;;;;11.47;10.37;;;4.50;99.90;;;5.47;97.85;99057.81;5216742;28;20189;-60
2021/12/14 02:19:07;;;;;;;10.80;9.80;;;4.50;99.90;;;5.50;97.26;99065.69;5229099;28;20225;-61
2021/12/14 02:21:45;;;;;;;9.60;8.70;;;4.40;99.90;;;5.47;96.79;99073.00;5228668;28;20197;-61
2021/12/14 02:24:21;;;;;;;9.93;9.03;;;4.40;99.90;;;5.34;97.76;99076.88;5226528;28;20189;-59
2021/12/14 02:26:55;;;;;;;11.03;9.93;;;4.40;99.90;;;5.34;97.63;99071.81;5227812;28;20211;-60
2021/12/14 02:29:33;;;;;;;10.23;9.33;;;4.50;99.90;;;5.31;98.18;99068.97;5227815;28;20223;-60
2021/12/14 02:32:11;;;;;;;10.00;9.00;;;4.40;99.90;;;5.40;97.43;99067.31;5227414;28;20661;-61
2021/12/14 02:34:49;;;;;;;10.10;9.20;;;4.40;99.90;;;5.40;96.93;99072.41;5226603;28;20205;-60
2021/12/14 02:37:40;;;;;;;10.57;9.30;;;4.30;99.90;;;5.27;97.70;99064.38;5228736;28;20204;-60
2021/12/14 02:40:20;;;;;;;10.70;9.60;;;4.30;99.90;;;5.35;97.13;99068.56;5226810;28;20708;-60
2021/12/14 02:42:53;;;;;;;9.93;8.93;;;4.30;99.90;;;5.28;97.20;99066.16;5222335;28;20207;-60
2021/12/14 02:45:27;;;;;;;12.30;9.67;;;4.20;99.90;;;5.30;97.71;99064.66;5226249;28;20205;-60
2021/12/14 02:48:05;;;;;;;10.97;9.87;;;4.30;99.90;;;5.19;98.29;99060.19;5228623;28;20213;-59
2021/12/14 02:50:40;;;;;;;12.40;10.40;;;4.30;99.90;;;5.19;98.66;99063.63;5227914;28;20225;-60
2021/12/14 02:53:16;;;;;;;12.40;10.30;;;4.20;99.90;;;5.18;98.63;99066.03;5228531;28;20210;-59
2021/12/14 02:55:49;;;;;;;15.43;10.83;;;4.20;99.90;;;5.26;98.49;99062.56;5225996;28;20291;-60
2021/12/14 02:58:22;;;;;;;13.07;10.83;;;4.20;99.90;;;5.22;98.98;99049.47;5227736;28;20199;-60
2021/12/14 03:00:58;;;;;;;17.00;12.07;;;4.20;99.90;;;5.16;98.80;99049.75;5223699;28;20200;-58
2021/12/14 03:03:31;;;;;;;14.20;11.10;;;4.30;99.90;;;5.19;99.13;99048.41;5214848;28;20284;-59
2021/12/14 03:06:06;;;;;;;15.67;11.27;;;4.30;99.90;;;5.20;99.13;99042.59;5224524;28;20200;-59
2021/12/14 03:08:48;;;;;;;14.07;10.80;;;4.30;99.90;;;5.19;99.26;99045.88;5225032;28;20212;-57
2021/12/14 03:11:22;;;;;;;16.83;11.77;;;4.20;99.90;;;5.24;98.28;99038.75;5216609;28;20201;-57
2021/12/14 03:13:55;;;;;;;16.07;11.37;;;4.20;99.90;;;5.20;98.44;99049.31;5219118;28;20202;-59
2021/12/14 03:16:33;;;;;;;14.83;11.93;;;4.20;99.90;;;5.13;99.19;99046.94;5220646;28;20185;-59
2021/12/14 03:19:08;;;;;;;14.57;11.57;;;4.20;99.90;;;5.08;98.67;99040.53;5227038;28;20307;-59
2021/12/14 03:21:45;;;;;;;16.37;12.50;;;4.20;99.90;;;5.17;98.80;99046.47;5222576;28;20652;-59
2021/12/14 03:24:21;;;;;;;14.17;11.50;;;4.10;99.90;;;5.16;99.21;99049.75;5224187;28;20316;-58
2021/12/14 03:26:55;;;;;;;17.03;12.20;;;4.20;99.90;;;5.03;98.88;99051.84;5225920;28;20227;-59
2021/12/14 03:29:33;;;;;;;15.20;11.73;;;4.20;99.90;;;4.99;100.00;99050.66;5227285;28;20216;-55
2021/12/14 03:32:07;;;;;;;16.67;11.07;;;4.20;99.90;;;4.95;99.75;99059.59;5227489;28;20209;-58
2021/12/14 03:34:41;;;;;;;16.17;10.47;;;4.20;99.90;;;4.95;100.00;99064.66;5227957;28;20205;-60
2021/12/14 03:37:20;;;;;;;15.23;9.83;;;4.20;99.90;;;4.94;100.00;99051.84;5229070;28;20197;-58
2021/12/14 03:40:02;;;;;;;15.73;11.57;;;4.20;99.90;;;4.91;100.00;99057.50;5226600;28;20217;-58
2021/12/14 03:42:41;;;;;;;15.07;10.73;;;4.20;99.90;;;5.04;100.00;99056.19;5225399;28;20576;-58
2021/12/14 03:45:18;;;;;;;13.30;10.23;;;4.10;99.90;;;5.06;99.50;99047.06;5228386;28;20228;-59
2021/12/14 03:47:55;;;;;;;14.53;11.03;;;4.10;99.90;;;5.00;98.95;99041.41;5227616;28;20217;-59
2021/12/14 03:50:33;;;;;;;15.93;12.07;;;4.00;99.90;;;4.87;100.00;99045.28;5228163;28;20681;-59
2021/12/14 03:53:07;;;;;;;16.60;12.10;;;4.10;99.90;;;4.87;100.00;99037.69;5227624;28;20683;-59
2021/12/14 03:55:46;;;;;;;16.47;11.63;;;4.10;99.90;;;4.78;100.00;99039.31;5220336;28;20200;-58
2021/12/14 03:58:25;;;;;;;17.50;12.17;;;4.10;99.90;;;4.79;100.00;99048.69;5226563;28;20205;-59
2021/12/14 04:01:02;;;;;;;14.70;11.23;;;4.10;99.90;;;4.82;100.00;99053.19;5226357;28;20537;-58
2021/12/14 04:03:37;;;;;;;17.17;12.43;;;4.00;99.90;;;4.76;100.00;99053.47;5218303;28;20670;-58
2021/12/14 04:06:12;;;;;;;16.63;11.53;;;4.10;99.90;;;4.79;100.00;99047.81;5227936;28;20196;-59
2021/12/14 04:08:47;;;;;;;17.10;12.57;;;4.00;99.90;;;4.87;100.00;99045.28;5209830;28;20228;-57
2021/12/14 04:11:22;;;;;;;16.17;12.57;;;4.00;99.90;;;4.97;100.00;99042.88;5222789;28;20248;-60
2021/12/14 04:13:56;;;;;;;14.97;11.40;;;4.00;99.90;;;5.00;98.97;99046.47;5227180;28;20211;-58
2021/12/14 04:16:29;;;;;;;13.80;11.13;;;4.00;99.90;;;5.00;98.85;99049.00;5213352;28;20217;-59
2021/12/14 04:19:06;;;;;;;14.77;10.73;;;4.00;99.90;;;4.94;99.22;99044.22;5215992;28;20260;-57
2021/12/14 04:21:46;;;;;;;15.33;10.90;;;4.00;99.90;;;4.87;99.26;99050.34;5227294;28;20201;-59
2021/12/14 04:24:25;;;;;;;12.53;10.60;;;4.00;99.90;;;4.81;100.00;99053.91;5227232;28;20193;-59
2021/12/14 04:27:03;;;;;;;14.83;10.77;;;4.00;99.90;;;4.89;100.00;99056.47;5224082;28;20225;-58
2021/12/14 04:29:37;;;;;;;14.20;9.83;;;4.00;99.90;;;4.94;100.00;99046.78;5226256;28;20225;-59
2021/12/14 04:32:14;;;;;;;11.20;8.97;;;4.00;99.90;;;5.03;99.60;99054.38;5222086;28;20224;-58
2021/12/14 04:34:49;;;;;;;12.33;9.70;;;4.00;99.90;;;4.98;99.22;99053.94;5221120;28;20657;-58
2021/12/14 04:37:23;;;;;;;12.33;10.10;;;4.00;99.90;;;4.94;100.00;99057.78;5227514;28;20189;-59
2021/12/14 04:40:10;;;;;;;12.43;10.20;;;4.00;99.90;;;4.89;100.00;99050.47;5224618;28;20230;-59
2021/12/14 04:54:08;;;;;;;14.77;11.70;;;4.00;99.90;;;4.91;100.00;99026.22;5209664;28;20208;-58
2021/12/14 04:56:45;;;;;;;16.73;12.43;;;4.10;99.90;;;4.95;100.00;99024.13;5221334;28;20306;-57
2021/12/14 04:59:26;;;;;;;15.03;11.07;;;4.00;99.90;;;4.99;99.49;99016.84;5226881;28;20213;-58
2021/12/14 05:02:11;;;;;;;17.93;12.07;;;4.00;99.90;;;4.89;100.00;99008.34;5223568;28;20201;-59
2021/12/14 05:04:46;;;;;;;17.33;11.83;;;4.00;99.90;;;4.87;100.00;99017.44;5225844;28;20259;-58
2021/12/14 05:07:46;;;;;;;16.50;11.93;;;4.00;99.90;;;4.88;100.00;99021.72;5226334;28;20223;-58
2021/12/14 05:10:22;;;;;;;14.27;11.37;;;4.00;99.90;;;4.90;100.00;99007.59;5221008;28;20225;-58
2021/12/14 05:12:55;;;;;;;17.53;12.47;;;4.00;99.90;;;4.94;98.18;99007.13;5224824;28;20201;-59
2021/12/14 05:15:29;;;;;;;18.73;13.17;;;4.00;99.90;;;4.90;98.44;99004.16;5225012;28;20203;-58
2021/12/14 05:18:03;;;;;;;17.33;12.30;;;4.00;99.90;;;4.81;98.82;98999.09;5226899;28;20207;-59
2021/12/14 05:20:36;;;;;;;17.97;12.93;;;3.90;99.90;;;4.72;99.97;98998.19;5225110;28;20559;-57
2021/12/14 05:23:10;;;;;;;17.67;12.57;;;3.90;99.90;;;4.69;100.00;98990.28;5226470;28;20194;-60
2021/12/14 05:25:43;;;;;;;21.00;14.40;;;3.90;99.90;;;4.76;100.00;98990.16;5223549;28;20241;-58
2021/12/14 05:28:19;;;;;;;22.00;14.53;;;3.90;99.90;;;4.64;100.00;98994.03;5224393;28;20228;-59
2021/12/14 05:30:57;;;;;;;18.73;13.10;;;3.90;99.90;;;4.67;100.00;98989.25;5225000;28;20669;-56
2021/12/14 05:33:34;;;;;;;18.87;12.93;;;3.80;99.90;;;4.68;100.00;98988.50;5218131;28;20577;-55
2021/12/14 05:36:13;;;;;;;22.27;14.77;;;3.90;99.90;;;4.63;100.00;98994.75;5225141;28;20187;-56
2021/12/14 05:38:57;;;;;;;22.83;14.40;;;3.80;99.90;;;4.64;100.00;98994.91;5226340;28;20217;-57
2021/12/14 05:44:26;;;;;;;16.43;12.83;;;3.80;99.90;;;4.62;100.00;99025.88;5214972;28;20634;-58
2021/12/14 05:47:10;;;;;;;18.27;12.27;;;3.80;99.90;;;4.58;100.00;99016.19;5225338;28;20312;-56
2021/12/14 05:49:46;;;;;;;17.10;12.43;;;3.80;99.90;;;4.66;100.00;99017.84;5223123;28;20217;-58
2021/12/14 05:52:26;;;;;;;19.10;13.53;;;3.80;99.90;;;4.74;100.00;99011.88;5224755;28;20231;-59
2021/12/14 05:54:59;;;;;;;18.03;12.87;;;3.80;99.90;;;4.68;100.00;99006.22;5222406;28;20205;-59
2021/12/14 05:57:33;;;;;;;17.07;13.07;;;3.80;99.90;;;4.68;99.59;99007.13;5214888;28;20208;-58
2021/12/14 06:00:10;;;;;;;19.17;13.40;;;3.70;99.90;;;4.65;100.00;99005.94;5217622;28;20229;-59
2021/12/14 06:02:45;;;;;;;19.27;13.50;;;3.70;99.90;;;4.58;100.00;99003.53;5223093;28;20201;-58
2021/12/14 06:05:22;;;;;;;21.30;13.67;;;3.70;99.90;;;4.60;100.00;99005.47;5223077;28;20204;-59
2021/12/14 06:07:55;;;;;;;20.73;13.20;;;3.80;99.90;;;4.54;100.00;99006.50;5218919;28;20228;-59
2021/12/14 06:10:29;;;;;;;21.33;13.33;;;3.80;99.90;;;4.67;100.00;99012.06;5219963;28;20213;-58
2021/12/14 06:13:03;;;;;;;18.87;13.00;;;3.80;99.90;;;4.59;100.00;99015.47;5222839;28;20728;-58
2021/12/14 06:15:37;;;;;;;19.60;13.00;;;3.80;99.90;;;4.55;100.00;99013.34;5221598;28;20193;-59
2021/12/14 06:18:12;;;;;;;21.30;14.80;;;3.80;99.90;;;4.50;100.00;99011.28;5223049;28;20196;-59
2021/12/14 06:20:46;;;;;;;19.67;13.80;;;3.80;99.90;;;4.53;100.00;99020.81;5215902;28;20232;-56
2021/12/14 06:23:25;;;;;;;18.30;12.67;;;3.80;99.90;;;4.57;100.00;99022.00;5220794;28;20198;-58
2021/12/14 06:25:59;;;;;;;18.53;12.17;;;3.80;99.90;;;4.65;100.00;99005.94;5219667;28;20203;-56
2021/12/14 06:28:32;;;;;;;22.63;15.10;;;3.80;99.90;;;4.66;100.00;99005.19;5222975;28;20597;-58
2021/12/14 06:31:05;;;;;;;21.77;15.93;;;3.90;99.90;;;4.55;100.00;99009.22;5221109;28;20197;-57
2021/12/14 06:33:40;;;;;;;23.40;15.00;;;3.80;99.90;;;4.47;100.00;99008.44;5222991;28;20606;-57
2021/12/14 06:36:52;;;;;;;25.53;15.27;;;3.70;99.90;;;4.37;100.00;99008.25;5218777;28;20567;-55
2021/12/14 06:39:25;;;;;;;24.87;15.30;;;3.60;99.90;;;4.36;100.00;99009.00;5203769;28;20302;-55
2021/12/14 06:42:05;;;;;;;24.43;15.47;;;3.60;99.90;;;4.30;100.00;98998.28;5217568;28;20207;-57
2021/12/14 06:44:38;;;;;;;26.27;16.03;;;3.60;99.90;;;4.32;100.00;99008.53;5212641;28;20224;-58
2021/12/14 06:47:12;;;;;;;22.47;14.93;;;3.70;99.90;;;4.26;100.00;99003.75;5214941;28;20199;-58
2021/12/14 06:49:47;;;;;;;23.00;14.80;;;3.60;99.90;;;4.28;100.00;99013.28;5222761;28;20225;-57
2021/12/14 06:52:21;;;;;;;25.23;15.63;;;3.60;99.90;;;4.13;100.00;99019.38;5228147;28;20215;-57
2021/12/14 06:54:54;;;;;;;21.50;13.80;;;3.50;99.90;;;4.17;100.00;98998.69;5227825;28;20231;-56
2021/12/14 06:57:28;;;;;;;26.10;15.23;;;3.60;99.90;;;4.15;100.00;99002.72;5224065;28;20579;-57
2021/12/14 07:00:05;;;;;;;20.13;14.63;;;3.50;99.90;;;4.28;100.00;99002.28;5219473;28;20228;-57
2021/12/14 07:02:39;;;;;;;18.93;12.80;;;3.60;99.90;;;4.38;100.00;98999.94;5227636;28;20658;-58
2021/12/14 07:05:20;;;;;;;17.50;11.80;;;3.60;99.90;;;4.36;100.00;99001.41;5226025;28;20223;-61
2021/12/14 07:07:54;;;;;;;16.03;11.27;;;3.60;99.90;;;4.63;99.74;99005.75;5225607;28;20242;-61
2021/12/14 07:10:27;;;;;;;17.83;11.63;;;3.70;99.90;;;4.51;99.25;99002.94;5223555;28;20649;-60
2021/12/14 07:13:15;;;;;;;17.97;11.77;;;3.70;99.90;;;4.45;99.83;98997.25;5208785;28;20205;-58
2021/12/14 07:15:49;;;;;;;18.60;13.20;;;3.60;99.90;;;4.44;100.00;98992.94;5226112;28;20575;-58
2021/12/14 07:18:25;;;;;;;17.03;11.67;;;3.70;99.90;;;4.37;100.00;98998.13;5221910;28;20284;-55
2021/12/14 07:21:00;;;;;;;15.47;10.77;;;3.60;99.90;;;4.44;99.57;98976.88;5224502;28;20219;-57
2021/12/14 07:23:37;;;;;;;17.17;10.83;;;3.70;99.90;;;4.36;100.00;98976.09;5222503;28;20204;-57
2021/12/14 07:26:14;;;;;;;15.47;11.00;;;3.60;99.90;;;4.37;100.00;98975.34;5224101;28;20296;-59
2021/12/14 07:28:48;;;;;;;12.80;9.87;;;3.60;99.90;;;4.34;99.72;98979.22;5215001;28;20233;-58
2021/12/14 07:31:25;;;;;;;13.27;10.30;;;3.60;99.90;;;4.29;99.81;98971.16;5218560;28;20689;-55
2021/12/14 07:34:01;;;;;;;14.37;9.93;;;3.60;99.90;;;4.29;100.00;98958.50;5217666;28;20644;-59
2021/12/14 07:36:38;;;;;;;12.53;10.17;;;3.60;99.90;;;4.23;99.14;98963.88;5215144;28;20602;-59
2021/12/14 07:39:16;;;;;;;11.23;9.10;;;3.50;99.90;;;4.17;99.35;98972.50;5227309;28;20217;-58
2021/12/14 07:41:52;;;;;;;10.60;8.33;;;3.40;99.90;;;4.19;99.47;98964.31;5220107;28;20198;-56
2021/12/14 07:44:29;;;;;;;10.10;8.93;;;3.40;99.90;;;4.21;99.33;98959.41;5218912;28;20208;-54
2021/12/14 07:47:08;;;;;;;10.83;8.90;;;3.40;99.90;;;4.26;99.45;98943.03;5209680;28;20197;-59
2021/12/14 07:49:44;;;;;;;10.43;8.77;;;3.50;99.90;;;4.21;98.83;98964.47;5223038;28;20231;-57
2021/12/14 07:52:22;;;;;;;10.03;8.57;;;3.40;99.90;;;4.22;99.50;98967.16;5221374;28;20201;-56
2021/12/14 07:55:00;;;;;;;11.63;8.97;;;3.50;99.90;;;4.27;99.25;98978.63;5218386;28;20507;-58
2021/12/14 07:57:36;;;;;;;11.10;8.23;;;3.50;99.90;;;4.24;99.46;98992.63;5224663;28;20201;-59
2021/12/14 08:00:16;;;;;;;9.33;8.37;;;3.50;99.90;;;4.31;99.72;99007.66;5226565;28;20675;-58
2021/12/14 08:02:52;;;;;;;11.07;9.10;;;3.50;99.90;;;4.33;99.67;99006.19;5224909;28;20201;-58
2021/12/14 08:05:29;;;;;;;12.53;10.17;;;3.60;99.90;;;4.38;99.05;98994.88;5228173;28;20194;-55
2021/12/14 08:08:13;;;;;;;9.50;8.47;;;3.50;99.90;;;4.45;98.59;98994.72;5227131;28;20207;-59
2021/12/14 08:10:57;;;;;;;11.33;8.77;;;3.60;99.90;;;4.59;98.39;98980.00;5218531;28;20233;-59
2021/12/14 08:13:30;;;;;;;9.33;7.73;;;3.60;99.90;;;4.61;96.86;98973.47;5219285;28;20204;-58
2021/12/14 08:16:03;;;;;;;10.40;8.33;;;3.60;99.90;;;4.61;96.02;98973.47;5213287;28;20289;-57
2021/12/14 08:18:39;;;;;;;8.93;8.03;;;3.70;99.90;;;4.59;96.79;98985.09;5222881;28;20320;-59
2021/12/14 08:21:19;;;;;;;11.67;9.23;;;3.70;99.90;;;4.51;97.07;98987.75;5217153;28;20201;-58
2021/12/14 08:23:58;;;;;;;10.87;9.00;;;3.80;99.90;;;4.44;95.70;98987.88;5222969;28;20197;-58
2021/12/14 08:26:37;;;;;;;9.97;8.60;;;3.70;99.90;;;4.62;96.80;98987.91;5218776;28;20479;-58
2021/12/14 08:29:16;;;;;;;9.70;8.70;;;3.80;99.90;;;4.82;96.25;98989.84;5221911;28;20233;-58
2021/12/14 08:31:53;;;;;;;10.20;8.63;;;4.00;99.90;;;4.94;96.14;99001.19;5226382;28;20205;-58
2021/12/14 08:34:30;;;;;;;9.30;7.40;;;4.00;99.90;;;4.76;93.85;99018.00;5216287;28;20205;-59
2021/12/14 08:37:10;;;;;;;10.13;9.13;;;4.00;99.90;;;4.80;95.45;99025.16;5225672;28;20702;-58
2021/12/14 08:39:49;;;;;;;9.57;8.57;;;4.00;99.90;;;4.80;95.02;99022.63;5217792;28;20209;-58
2021/12/14 08:42:31;;;;;;;10.83;8.97;;;3.90;99.90;;;4.81;95.29;99016.81;5224102;28;20207;-58
2021/12/14 08:45:25;;;;;;;11.03;8.97;;;4.00;99.90;;;4.88;95.14;99016.66;5227770;28;20660;-60
2021/12/14 08:48:09;;;;;;;10.30;8.73;;;4.10;99.90;;;4.77;94.76;99021.44;5220353;28;20217;-57
2021/12/14 08:50:52;;;;;;;11.67;10.43;;;4.00;99.90;;;4.90;94.99;99019.38;5219566;28;20711;-57
2021/12/14 08:53:32;;;;;;;9.93;8.87;;;4.10;99.90;;;5.02;95.36;99019.66;5217648;28;20206;-60
2021/12/14 08:56:11;;;;;;;10.67;8.67;;;4.00;99.90;;;5.10;95.51;99007.00;5213670;28;20204;-57
2021/12/14 08:58:45;;;;;;;10.80;9.20;;;4.20;99.90;;;5.25;94.75;99015.16;5225177;28;20232;-58
2021/12/14 09:01:23;;;;;;;9.87;8.33;;;4.30;99.90;;;5.31;93.93;99015.75;5226659;28;20188;-57
2021/12/14 09:04:01;;;;;;;11.07;8.47;;;4.30;99.90;;;5.39;93.19;99025.00;5216825;28;20201;-60
2021/12/14 09:06:41;;;;;;;10.67;8.97;;;4.30;99.90;;;5.20;92.54;99013.81;5226503;28;20197;-58
2021/12/14 09:09:19;;;;;;;11.10;9.13;;;4.30;99.90;;;5.18;93.42;99033.09;5225105;28;20217;-60
2021/12/14 09:11:59;;;;;;;11.70;9.90;;;4.20;99.90;;;5.12;93.46;99033.38;5221207;28;20205;-56
2021/12/14 09:14:33;;;;;;;10.13;9.07;;;4.20;99.90;;;5.12;94.25;99037.53;5218164;28;20207;-58
2021/12/14 09:17:09;;;;;;;10.57;9.47;;;4.30;99.90;;;5.11;94.10;99040.81;5225712;28;20205;-58
2021/12/14 09:19:48;;;;;;;10.83;9.10;;;4.30;99.90;;;5.11;94.75;99023.06;5214892;28;20780;-58
2021/12/14 09:22:30;;;;;;;11.23;8.67;;;4.20;99.90;;;5.21;95.04;99020.69;5209892;28;20190;-59
2021/12/14 09:25:06;;;;;;;10.47;8.90;;;4.30;99.90;;;5.38;94.46;99022.31;5221457;28;20201;-57
2021/12/14 09:27:42;;;;;;;10.30;8.97;;;4.40;99.90;;;5.39;93.95;99026.63;5222529;28;20201;-58
2021/12/14 09:30:20;;;;;;;9.83;8.70;;;4.40;99.90;;;5.46;93.65;99015.44;5217664;28;20221;-59
2021/12/14 09:32:54;;;;;;;10.77;9.40;;;4.40;99.90;;;5.49;93.15;99023.31;5216773;28;20193;-58
2021/12/14 09:35:35;;;;;;;10.47;8.97;;;4.60;99.90;;;5.55;93.49;99028.97;5225050;28;20202;-56
2021/12/14 09:38:12;;;;;;;10.10;8.67;;;4.70;99.90;;;5.53;93.60;99025.44;5213013;28;20280;-57
2021/12/14 09:40:50;;;;;;;11.40;9.70;;;4.60;99.90;;;5.55;93.68;99014.69;5218458;28;20201;-57
2021/12/14 09:43:24;;;;;;;10.23;8.97;;;4.70;99.90;;;5.63;94.20;99016.28;5224343;28;20204;-58
2021/12/14 09:46:01;;;;;;;10.63;8.97;;;4.80;99.90;;;5.77;93.34;99022.66;5218571;28;20200;-56
2021/12/14 09:48:38;;;;;;;10.97;9.30;;;4.80;99.90;;;5.90;92.83;99032.34;5220450;28;20304;-58
2021/12/14 09:51:17;;;;;;;10.17;9.17;;;4.90;99.90;;;5.97;91.76;99008.44;5223887;28;20772;-59
2021/12/14 09:53:56;;;;;;;10.70;9.60;;;4.90;99.90;;;6.03;91.68;99016.63;5224461;28;20533;-57
2021/12/14 09:56:35;;;;;;;9.83;8.63;;;5.00;99.90;;;6.15;91.24;99017.75;5217212;28;20767;-58
2021/12/14 09:59:11;;;;;;;9.47;8.43;;;5.00;99.90;;;6.17;90.30;99013.72;5218596;28;20694;-57
2021/12/14 10:01:48;;;;;;;9.50;8.60;;;5.10;99.90;;;6.24;90.49;99008.47;5220469;28;20245;-60
2021/12/14 10:04:26;;;;;;;8.97;8.07;;;5.20;99.90;;;6.34;90.17;99011.84;5225271;28;20200;-56
2021/12/14 10:07:03;;;;;;;9.03;8.07;;;5.30;99.90;;;6.56;87.92;99000.38;5226188;28;20205;-56
2021/12/14 10:09:43;;;;;;;8.50;7.70;;;5.30;99.90;;;6.46;87.34;99007.91;5224627;28;20221;-56
2021/12/14 10:15:17;;;;;;;8.43;7.63;;;5.50;99.90;;;6.60;87.46;99010.03;5219720;28;20561;-56
2021/12/14 10:17:52;;;;;;;8.67;7.37;;;5.50;99.90;;;6.65;87.57;99008.81;5209908;28;20666;-57
2021/12/14 10:20:30;;;;;;;7.80;7.10;;;5.60;99.90;;;6.59;87.29;99010.81;5224109;28;20215;-57
2021/12/14 10:23:05;;;;;;;8.40;7.60;;;5.60;99.90;;;6.48;88.00;99001.31;5210812;28;20207;-59
2021/12/14 10:25:38;;;;;;;7.93;7.13;;;5.50;99.90;;;6.46;87.73;99002.81;5214363;28;20197;-56
2021/12/14 10:28:12;;;;;;;8.97;8.07;;;5.50;99.90;;;6.44;87.56;98996.69;5222653;28;20197;-58
2021/12/14 10:30:56;;;;;;;8.57;7.77;;;5.50;99.90;;;6.46;88.07;98993.53;5216847;28;20221;-56
2021/12/14 10:33:34;;;;;;;8.60;7.80;;;5.50;99.90;;;6.49;88.15;98992.94;5212052;28;20216;-55
2021/12/14 10:36:23;;;;;;;10.07;8.90;;;5.50;99.90;;;6.48;87.93;98991.16;5218725;28;20232;-55
2021/12/14 10:39:18;;;;;;;10.30;8.93;;;5.50;99.90;;;6.57;87.99;98999.59;5215589;28;20227;-60
2021/12/14 10:44:51;;;;;;;8.83;7.93;;;5.60;99.90;;;6.52;88.96;98993.22;5223144;28;20213;-55
2021/12/14 10:47:30;;;;;;;8.73;7.93;;;5.60;99.90;;;6.49;88.55;98988.75;5225109;28;20203;-61
2021/12/14 10:50:10;;;;;;;9.63;8.63;;;5.60;99.90;;;6.60;88.27;98991.38;5217750;28;20697;-57
2021/12/14 10:52:45;;;;;;;9.47;8.57;;;5.70;99.90;;;6.49;87.75;99001.44;5219867;28;20214;-57
2021/12/14 10:55:24;;;;;;;10.30;9.20;;;5.60;99.90;;;6.53;88.67;98995.03;5214821;28;20326;-57
2021/12/14 10:57:57;;;;;;;10.37;9.37;;;5.60;99.90;;;6.44;88.96;98999.22;5224196;28;20208;-59
2021/12/14 11:00:41;;;;;;;11.60;9.23;;;5.60;99.90;;;6.45;89.58;99006.13;5222866;28;20217;-58
2021/12/14 11:03:19;;;;;;;10.57;9.43;;;5.60;99.90;;;6.52;88.66;98993.22;5223456;28;20197;-57
2021/12/14 11:05:57;;;;;;;9.33;8.43;;;5.70;99.90;;;6.51;87.74;98994.88;5224285;28;20205;-59
2021/12/14 11:08:46;;;;;;;9.20;8.30;;;5.50;99.90;;;6.48;88.45;98993.69;5217539;28;20193;-56
2021/12/14 11:11:35;;;;;;;9.20;8.40;;;5.50;99.90;;;6.50;89.82;98992.19;5217042;28;20396;-57
2021/12/14 11:14:13;;;;;;;9.70;8.80;;;5.60;99.90;;;6.56;90.00;98995.28;5222643;28;20669;-58
2021/12/14 11:19:47;;;;;;;9.60;8.60;;;5.70;99.90;;;6.60;89.46;98996.47;5217134;28;20593;-60
2021/12/14 11:22:26;;;;;;;9.73;8.63;;;5.80;99.90;;;6.77;90.10;99001.41;5214942;28;20209;-58
2021/12/14 11:25:06;;;;;;;10.20;9.13;;;5.90;99.90;;;6.74;89.76;99003.69;5214620;28;20201;-59
2021/12/14 11:27:44;;;;;;;9.63;8.73;;;5.90;99.90;;;6.84;90.01;99002.84;5221370;28;20280;-58
2021/12/14 11:30:21;;;;;;;9.40;8.57;;;6.00;99.90;;;6.79;89.48;99004.09;5214347;28;20218;-61